createdAt,value
2023-06-03T00:01:12.732Z,101984.00
2023-06-03T00:03:40.575Z,101990.00
2023-06-03T00:06:07.444Z,101990.00
2023-06-03T00:08:34.013Z,101992.00
2023-06-03T00:11:00.596Z,101987.00
2023-06-03T00:13:27.245Z,101985.00
2023-06-03T00:15:53.756Z,101988.00
2023-06-03T00:18:20.354Z,101983.00
2023-06-03T00:20:48.979Z,101986.00
2023-06-03T00:23:17.162Z,101981.00
2023-06-03T00:25:43.782Z,101987.00
2023-06-03T00:28:11.154Z,101995.00
2023-06-03T00:30:38.123Z,101992.00
2023-06-03T00:33:05.448Z,101988.00
2023-06-03T00:35:32.313Z,101992.00
2023-06-03T00:37:58.972Z,101994.00
2023-06-03T00:40:27.401Z,101988.00
2023-06-03T00:42:53.992Z,101992.00
2023-06-03T00:45:20.754Z,101997.00
2023-06-03T00:47:48.916Z,101997.00
2023-06-03T00:50:15.927Z,101995.00
2023-06-03T00:52:42.759Z,101985.00
2023-06-03T00:55:09.726Z,101995.00
2023-06-03T00:57:36.336Z,101993.00
2023-06-03T01:00:03.347Z,102000.00
2023-06-03T01:02:30.392Z,101993.00
2023-06-03T01:04:58.421Z,102005.00
2023-06-03T01:07:41.497Z,102004.00
2023-06-03T01:10:16.486Z,102007.00
2023-06-03T01:13:05.578Z,102006.00
2023-06-03T01:15:33.941Z,102008.00
2023-06-03T01:18:06.862Z,102002.00
2023-06-03T01:20:34.389Z,102002.00
2023-06-03T01:23:21.896Z,101997.00
2023-06-03T01:25:52.114Z,102003.00
2023-06-03T01:28:21.680Z,102000.00
2023-06-03T01:30:49.042Z,102001.00
2023-06-03T01:33:17.037Z,102004.00
2023-06-03T01:35:44.686Z,102014.00
2023-06-03T01:38:11.977Z,102009.00
2023-06-03T01:40:39.993Z,102007.00
2023-06-03T01:43:07.037Z,102006.00
2023-06-03T01:45:36.003Z,102011.00
2023-06-03T01:48:03.433Z,102002.00
2023-06-03T01:50:31.552Z,102005.00
2023-06-03T01:52:58.034Z,102008.00
2023-06-03T01:55:24.546Z,102001.00
2023-06-03T01:57:51.035Z,102001.00
2023-06-03T02:00:17.810Z,102002.00
2023-06-03T02:02:45.896Z,102011.00
2023-06-03T02:05:12.609Z,102009.00
2023-06-03T02:07:39.114Z,102009.00
2023-06-03T02:10:06.148Z,102009.00
2023-06-03T02:12:32.903Z,102007.00
2023-06-03T02:14:59.399Z,102014.00
2023-06-03T02:17:26.147Z,102009.00
2023-06-03T02:19:52.656Z,102005.00
2023-06-03T02:22:19.522Z,102000.00
2023-06-03T02:24:47.301Z,102007.00
2023-06-03T02:27:20.639Z,102004.00
2023-06-03T02:29:53.959Z,102005.00
2023-06-03T02:32:20.820Z,102007.00
2023-06-03T02:34:49.352Z,102007.00
2023-06-03T02:37:18.841Z,102005.00
2023-06-03T02:39:45.518Z,102011.00
2023-06-03T02:42:12.406Z,102003.00
2023-06-03T02:44:39.149Z,102008.00
2023-06-03T02:47:05.811Z,102008.00
2023-06-03T02:49:32.456Z,102003.00
2023-06-03T02:51:59.695Z,102005.00
2023-06-03T02:54:26.436Z,102003.00
2023-06-03T02:56:53.369Z,102008.00
2023-06-03T02:59:19.958Z,102006.00
2023-06-03T03:01:46.530Z,102007.00
2023-06-03T03:04:14.558Z,102012.00
2023-06-03T03:06:41.910Z,102008.00
2023-06-03T03:09:08.796Z,102011.00
2023-06-03T03:11:37.639Z,102012.00
2023-06-03T03:14:04.378Z,102007.00
2023-06-03T03:16:34.505Z,102011.00
2023-06-03T03:19:01.523Z,102011.00
2023-06-03T03:21:28.152Z,102012.00
2023-06-03T03:23:54.806Z,102014.00
2023-06-03T03:26:22.956Z,102005.00
2023-06-03T03:28:50.250Z,102017.00
2023-06-03T03:31:17.627Z,102013.00
2023-06-03T03:33:44.393Z,102020.00
2023-06-03T03:36:13.403Z,102017.00
2023-06-03T03:38:40.016Z,102023.00
2023-06-03T03:41:07.364Z,102017.00
2023-06-03T03:43:34.876Z,102012.00
2023-06-03T03:46:01.816Z,102012.00
2023-06-03T03:48:31.387Z,102014.00
2023-06-03T03:50:58.499Z,102015.00
2023-06-03T03:53:36.181Z,102022.00
2023-06-03T03:56:03.843Z,102024.00
2023-06-03T03:58:42.046Z,102020.00
2023-06-03T04:01:14.122Z,102021.00
2023-06-03T04:03:43.811Z,102018.00
2023-06-03T04:06:11.968Z,102024.00
2023-06-03T04:08:41.557Z,102028.00
2023-06-03T04:11:24.976Z,102039.00
2023-06-03T04:13:52.051Z,102031.00
2023-06-03T04:16:49.571Z,102041.00
2023-06-03T04:19:32.112Z,102034.00
2023-06-03T04:22:00.686Z,102031.00
2023-06-03T04:24:27.580Z,102032.00
2023-06-03T04:26:54.848Z,102035.00
2023-06-03T04:29:21.435Z,102032.00
2023-06-03T04:31:48.055Z,102033.00
2023-06-03T04:34:14.673Z,102040.00
2023-06-03T04:36:41.168Z,102039.00
2023-06-03T04:39:09.791Z,102040.00
2023-06-03T04:41:41.370Z,102034.00
2023-06-03T04:44:11.562Z,102039.00
2023-06-03T04:46:38.478Z,102032.00
2023-06-03T04:49:05.165Z,102028.00
2023-06-03T04:51:35.045Z,102028.00
2023-06-03T04:54:05.595Z,102028.00
2023-06-03T04:56:32.153Z,102036.00
2023-06-03T04:59:02.924Z,102030.00
2023-06-03T05:01:31.147Z,102029.00
2023-06-03T05:03:58.495Z,102037.00
2023-06-03T05:06:25.122Z,102027.00
2023-06-03T05:08:52.090Z,102042.00
2023-06-03T05:11:19.634Z,102032.00
2023-06-03T05:13:46.660Z,102032.00
2023-06-03T05:16:13.429Z,102024.00
2023-06-03T05:18:43.473Z,102032.00
2023-06-03T05:21:10.737Z,102029.00
2023-06-03T05:23:37.484Z,102032.00
2023-06-03T05:26:04.110Z,102037.00
2023-06-03T05:28:31.137Z,102030.00
2023-06-03T05:30:57.836Z,102026.00
2023-06-03T05:33:28.941Z,102031.00
2023-06-03T05:35:55.813Z,102018.00
2023-06-03T05:38:22.980Z,102015.00
2023-06-03T05:40:50.671Z,102023.00
2023-06-03T05:43:17.394Z,102029.00
2023-06-03T05:45:44.564Z,102019.00
2023-06-03T05:48:11.950Z,102021.00
2023-06-03T05:50:48.410Z,102015.00
2023-06-03T05:53:14.915Z,102009.00
2023-06-03T05:55:41.442Z,102003.00
2023-06-03T05:58:08.100Z,102007.00
2023-06-03T06:00:34.701Z,102005.00
2023-06-03T06:03:01.461Z,102011.00
2023-06-03T06:05:28.269Z,102011.00
2023-06-03T06:07:54.915Z,102010.00
2023-06-03T06:10:21.431Z,102010.00
2023-06-03T06:12:47.968Z,102011.00
2023-06-03T06:15:14.603Z,102014.00
2023-06-03T06:17:43.755Z,102008.00
2023-06-03T06:20:13.800Z,102019.00
2023-06-03T06:22:43.810Z,102023.00
2023-06-03T06:25:10.960Z,102019.00
2023-06-03T06:27:37.562Z,102022.00
2023-06-03T06:30:04.603Z,102022.00
2023-06-03T06:32:31.558Z,102017.00
2023-06-03T06:34:58.343Z,102030.00
2023-06-03T06:37:24.836Z,102024.00
2023-06-03T06:39:57.506Z,102039.00
2023-06-03T06:42:37.154Z,102024.00
2023-06-03T06:45:16.217Z,102019.00
2023-06-03T06:47:43.893Z,102029.00
2023-06-03T06:50:31.316Z,102026.00
2023-06-03T06:52:57.907Z,102024.00
2023-06-03T06:55:47.534Z,102024.00
2023-06-03T06:58:14.500Z,102023.00
2023-06-03T07:00:41.422Z,102029.00
2023-06-03T07:03:17.233Z,102032.00
2023-06-03T07:05:46.410Z,102031.00
2023-06-03T07:08:13.441Z,102032.00
2023-06-03T07:10:40.587Z,102036.00
2023-06-03T07:13:08.039Z,102033.00
2023-06-03T07:15:35.019Z,102024.00
2023-06-03T07:18:03.213Z,102034.00
2023-06-03T07:20:39.716Z,102037.00
2023-06-03T07:23:14.132Z,102035.00
2023-06-03T07:25:45.627Z,102026.00
2023-06-03T07:28:14.305Z,102030.00
2023-06-03T07:30:42.856Z,102035.00
2023-06-03T07:33:11.897Z,102037.00
2023-06-03T07:35:38.695Z,102032.00
2023-06-03T07:38:05.830Z,102033.00
2023-06-03T07:40:43.657Z,102032.00
2023-06-03T07:43:12.315Z,102039.00
2023-06-03T07:45:39.853Z,102038.00
2023-06-03T07:48:09.404Z,102034.00
2023-06-03T07:50:36.130Z,102034.00
2023-06-03T07:53:04.455Z,102039.00
2023-06-03T07:55:40.534Z,102033.00
2023-06-03T07:58:10.866Z,102030.00
2023-06-03T08:00:37.865Z,102035.00
2023-06-03T08:03:04.564Z,102028.00
2023-06-03T08:05:35.003Z,102030.00
2023-06-03T08:08:04.298Z,102031.00
2023-06-03T08:10:30.877Z,102039.00
2023-06-03T08:12:57.422Z,102041.00
2023-06-03T08:15:29.706Z,102034.00
2023-06-03T08:17:56.859Z,102033.00
2023-06-03T08:20:26.138Z,102027.00
2023-06-03T08:22:53.367Z,102029.00
2023-06-03T08:25:20.851Z,102032.00
2023-06-03T08:27:47.716Z,102035.00
2023-06-03T08:30:15.968Z,102034.00
2023-06-03T08:32:43.780Z,102036.00
2023-06-03T08:35:12.555Z,102047.00
2023-06-03T08:37:39.480Z,102045.00
2023-06-03T08:40:11.386Z,102048.00
2023-06-03T08:42:49.870Z,102043.00
2023-06-03T08:45:18.102Z,102038.00
2023-06-03T08:48:09.235Z,102034.00
2023-06-03T08:50:37.085Z,102036.00
2023-06-03T08:53:11.063Z,102040.00
2023-06-03T08:55:40.094Z,102042.00
2023-06-03T08:58:19.967Z,102035.00
2023-06-03T09:00:47.819Z,102034.00
2023-06-03T09:03:17.840Z,102030.00
2023-06-03T09:05:45.542Z,102026.00
2023-06-03T09:08:13.400Z,102029.00
2023-06-03T09:10:40.273Z,102027.00
2023-06-03T09:13:07.356Z,102027.00
2023-06-03T09:15:35.486Z,102024.00
2023-06-03T09:18:02.954Z,102020.00
2023-06-03T09:20:29.634Z,102005.00
2023-06-03T09:22:57.119Z,102011.00
2023-06-03T09:25:23.918Z,102013.00
2023-06-03T09:27:50.458Z,102015.00
2023-06-03T09:30:17.820Z,102011.00
2023-06-03T09:32:44.475Z,102001.00
2023-06-03T09:35:11.449Z,101994.00
2023-06-03T09:37:38.043Z,102011.00
2023-06-03T09:40:10.867Z,102015.00
2023-06-03T09:42:45.180Z,101999.00
2023-06-03T09:45:28.092Z,101998.00
2023-06-03T09:47:55.352Z,102005.00
2023-06-03T09:50:23.463Z,101997.00
2023-06-03T09:52:50.247Z,102000.00
2023-06-03T09:55:18.664Z,101998.00
2023-06-03T09:58:07.619Z,102003.00
2023-06-03T10:00:47.759Z,102005.00
2023-06-03T10:03:14.478Z,102008.00
2023-06-03T10:05:42.932Z,102011.00
2023-06-03T10:08:09.564Z,102008.00
2023-06-03T10:10:36.305Z,102003.00
2023-06-03T10:13:20.148Z,102003.00
2023-06-03T10:15:46.875Z,102008.00
2023-06-03T10:18:13.555Z,101993.00
2023-06-03T10:20:42.100Z,102002.00
2023-06-03T10:23:09.960Z,102005.00
2023-06-03T10:25:46.883Z,101992.00
2023-06-03T10:28:14.546Z,101995.00
2023-06-03T10:30:42.543Z,101984.00
2023-06-03T10:33:10.050Z,101983.00
2023-06-03T10:35:38.184Z,101986.00
2023-06-03T10:38:06.980Z,101978.00
2023-06-03T10:40:34.537Z,101979.00
2023-06-03T10:43:03.895Z,101971.00
2023-06-03T10:45:31.120Z,101975.00
2023-06-03T10:48:08.669Z,101968.00
2023-06-03T10:50:54.121Z,101968.00
2023-06-03T10:53:50.821Z,101979.00
2023-06-03T10:56:39.862Z,101968.00
2023-06-03T10:59:12.485Z,101972.00
2023-06-03T11:02:02.959Z,101975.00
2023-06-03T11:04:32.111Z,101966.00
2023-06-03T11:06:59.152Z,101962.00
2023-06-03T11:09:41.570Z,101961.00
2023-06-03T11:12:10.986Z,101963.00
2023-06-03T11:14:44.088Z,101954.00
2023-06-03T11:17:13.623Z,101960.00
2023-06-03T11:19:46.526Z,101955.00
2023-06-03T11:22:14.807Z,101955.00
2023-06-03T11:24:41.333Z,101965.00
2023-06-03T11:27:10.913Z,101973.00
2023-06-03T11:29:50.388Z,101957.00
2023-06-03T11:32:26.865Z,101959.00
2023-06-03T11:35:06.473Z,101964.00
2023-06-03T11:37:42.468Z,101948.00
2023-06-03T11:40:13.639Z,101946.00
2023-06-03T11:42:49.294Z,101952.00
2023-06-03T11:45:19.534Z,101955.00
2023-06-03T11:47:54.698Z,101946.00
2023-06-03T11:50:24.817Z,101945.00
2023-06-03T11:52:53.264Z,101937.00
2023-06-03T11:55:41.554Z,101944.00
2023-06-03T11:58:09.529Z,101941.00
2023-06-03T12:00:36.596Z,101939.00
2023-06-03T12:03:03.747Z,101935.00
2023-06-03T12:05:33.935Z,101938.00
2023-06-03T12:08:02.529Z,101932.00
2023-06-03T12:10:29.298Z,101924.00
2023-06-03T12:12:58.698Z,101934.00
2023-06-03T12:15:29.583Z,101927.00
2023-06-03T12:18:04.733Z,101930.00
2023-06-03T12:20:32.440Z,101926.00
2023-06-03T12:23:04.736Z,101923.00
2023-06-03T12:25:32.086Z,101916.00
2023-06-03T12:28:19.038Z,101913.00
2023-06-03T12:30:46.145Z,101907.00
2023-06-03T12:33:12.718Z,101908.00
2023-06-03T12:35:53.972Z,101898.00
2023-06-03T12:38:22.405Z,101908.00
2023-06-03T12:40:57.534Z,101889.00
2023-06-03T12:43:24.036Z,101903.00
2023-06-03T12:45:50.656Z,101906.00
2023-06-03T12:48:31.540Z,101907.00
2023-06-03T12:50:58.280Z,101904.00
2023-06-03T12:53:28.406Z,101905.00
2023-06-03T12:55:54.950Z,101906.00
2023-06-03T12:58:21.444Z,101896.00
2023-06-03T13:00:48.029Z,101890.00
2023-06-03T13:03:14.647Z,101896.00
2023-06-03T13:05:42.199Z,101894.00
2023-06-03T13:08:11.327Z,101891.00
2023-06-03T13:10:37.942Z,101894.00
2023-06-03T13:13:04.867Z,101884.00
2023-06-03T13:15:31.644Z,101881.00
2023-06-03T13:17:58.203Z,101875.00
2023-06-03T13:20:24.880Z,101891.00
2023-06-03T13:22:57.548Z,101871.00
2023-06-03T13:25:24.498Z,101885.00
2023-06-03T13:27:54.041Z,101889.00
2023-06-03T13:30:26.675Z,101885.00
2023-06-03T13:32:54.196Z,101869.00
2023-06-03T13:35:21.798Z,101870.00
2023-06-03T13:37:48.523Z,101854.00
2023-06-03T13:40:15.173Z,101860.00
2023-06-03T13:42:42.336Z,101851.00
2023-06-03T13:45:09.960Z,101848.00
2023-06-03T13:47:37.248Z,101854.00
2023-06-03T13:50:05.895Z,101851.00
2023-06-03T13:52:32.774Z,101850.00
2023-06-03T13:54:59.643Z,101843.00
2023-06-03T13:57:26.363Z,101843.00
2023-06-03T14:00:06.771Z,101843.00
2023-06-03T14:02:34.073Z,101839.00
2023-06-03T14:05:02.099Z,101838.00
2023-06-03T14:07:29.790Z,101844.00
2023-06-03T14:09:56.318Z,101838.00
2023-06-03T14:12:23.158Z,101836.00
2023-06-03T14:14:50.034Z,101829.00
2023-06-03T14:17:16.712Z,101829.00
2023-06-03T14:19:43.338Z,101830.00
2023-06-03T14:22:10.919Z,101828.00
2023-06-03T14:24:37.454Z,101818.00
2023-06-03T14:27:04.277Z,101818.00
2023-06-03T14:29:30.930Z,101819.00
2023-06-03T14:31:58.810Z,101820.00
2023-06-03T14:34:25.834Z,101815.00
2023-06-03T14:36:52.459Z,101810.00
2023-06-03T14:39:19.153Z,101819.00
2023-06-03T14:41:46.575Z,101819.00
2023-06-03T14:44:13.542Z,101815.00
2023-06-03T14:46:40.596Z,101805.00
2023-06-03T14:49:07.198Z,101808.00
2023-06-03T14:51:33.715Z,101816.00
2023-06-03T14:54:00.316Z,101813.00
2023-06-03T14:56:27.016Z,101808.00
2023-06-03T14:58:54.887Z,101806.00
2023-06-03T15:01:21.760Z,101807.00
2023-06-03T15:03:48.340Z,101816.00
2023-06-03T15:06:16.041Z,101806.00
2023-06-03T15:08:43.231Z,101809.00
2023-06-03T15:11:09.734Z,101806.00
2023-06-03T15:13:36.331Z,101802.00
2023-06-03T15:16:06.272Z,101809.00
2023-06-03T15:18:33.086Z,101806.00
2023-06-03T15:20:59.965Z,101798.00
2023-06-03T15:23:26.908Z,101803.00
2023-06-03T15:25:53.732Z,101802.00
2023-06-03T15:28:20.251Z,101796.00
2023-06-03T15:30:46.795Z,101789.00
2023-06-03T15:33:13.367Z,101782.00
2023-06-03T15:35:39.960Z,101800.00
2023-06-03T15:38:06.725Z,101797.00
2023-06-03T15:40:33.292Z,101790.00
2023-06-03T15:43:02.333Z,101787.00
2023-06-03T15:45:29.013Z,101779.00
2023-06-03T15:47:55.588Z,101778.00
2023-06-03T15:50:22.130Z,101772.00
2023-06-03T15:52:48.665Z,101775.00
2023-06-03T15:55:15.568Z,101770.00
2023-06-03T15:57:44.433Z,101779.00
2023-06-03T16:00:11.553Z,101778.00
2023-06-03T16:02:38.387Z,101775.00
2023-06-03T16:05:06.005Z,101771.00
2023-06-03T16:07:32.635Z,101769.00
2023-06-03T16:09:59.352Z,101758.00
2023-06-03T16:12:25.968Z,101761.00
2023-06-03T16:14:52.736Z,101769.00
2023-06-03T16:17:20.545Z,101763.00
2023-06-03T16:19:47.622Z,101768.00
2023-06-03T16:22:14.112Z,101767.00
2023-06-03T16:24:41.073Z,101768.00
2023-06-03T16:27:08.577Z,101767.00
2023-06-03T16:29:35.174Z,101760.00
2023-06-03T16:32:06.800Z,101764.00
2023-06-03T16:34:33.451Z,101762.00
2023-06-03T16:37:00.223Z,101759.00
2023-06-03T16:39:26.952Z,101758.00
2023-06-03T16:41:53.619Z,101755.00
2023-06-03T16:44:24.039Z,101749.00
2023-06-03T16:46:50.640Z,101756.00
2023-06-03T16:49:17.822Z,101763.00
2023-06-03T16:51:44.427Z,101753.00
2023-06-03T16:54:11.099Z,101762.00
2023-06-03T16:56:37.781Z,101760.00
2023-06-03T16:59:04.697Z,101765.00
2023-06-03T17:01:31.395Z,101761.00
2023-06-03T17:03:59.466Z,101761.00
2023-06-03T17:06:28.769Z,101763.00
2023-06-03T17:08:56.736Z,101766.00
2023-06-03T17:11:23.639Z,101773.00
2023-06-03T17:13:50.432Z,101768.00
2023-06-03T17:16:19.899Z,101754.00
2023-06-03T17:18:47.609Z,101759.00
2023-06-03T17:21:14.145Z,101760.00
2023-06-03T17:23:40.767Z,101756.00
2023-06-03T17:26:07.513Z,101747.00
2023-06-03T17:28:34.025Z,101754.00
2023-06-03T17:31:00.879Z,101753.00
2023-06-03T17:33:27.748Z,101752.00
2023-06-03T17:35:56.417Z,101749.00
2023-06-03T17:38:25.303Z,101748.00
2023-06-03T17:40:51.796Z,101748.00
2023-06-03T17:43:18.355Z,101754.00
2023-06-03T17:45:45.028Z,101755.00
2023-06-03T17:48:11.756Z,101759.00
2023-06-03T17:50:38.329Z,101753.00
2023-06-03T17:53:04.912Z,101759.00
2023-06-03T17:55:32.058Z,101752.00
2023-06-03T17:57:58.590Z,101756.00
2023-06-03T18:00:30.074Z,101768.00
2023-06-03T18:02:56.683Z,101759.00
2023-06-03T18:05:23.971Z,101760.00
2023-06-03T18:07:50.500Z,101771.00
2023-06-03T18:10:17.101Z,101770.00
2023-06-03T18:12:44.698Z,101765.00
2023-06-03T18:15:14.377Z,101764.00
2023-06-03T18:17:44.196Z,101756.00
2023-06-03T18:20:11.113Z,101757.00
2023-06-03T18:22:37.686Z,101762.00
2023-06-03T18:25:04.842Z,101757.00
2023-06-03T18:27:31.503Z,101759.00
2023-06-03T18:29:58.417Z,101767.00
2023-06-03T18:32:25.026Z,101767.00
2023-06-03T18:34:51.869Z,101766.00
2023-06-03T18:37:18.592Z,101777.00
2023-06-03T18:39:46.402Z,101773.00
2023-06-03T18:42:15.258Z,101773.00
2023-06-03T18:44:41.856Z,101777.00
2023-06-03T18:47:08.508Z,101775.00
2023-06-03T18:49:35.154Z,101775.00
2023-06-03T18:52:03.183Z,101775.00
2023-06-03T18:54:29.720Z,101774.00
2023-06-03T18:56:56.373Z,101774.00
2023-06-03T18:59:23.236Z,101777.00
2023-06-03T19:01:51.139Z,101779.00
2023-06-03T19:04:20.363Z,101780.00
2023-06-03T19:06:47.403Z,101785.00
2023-06-03T19:09:14.033Z,101781.00
2023-06-03T19:11:43.433Z,101778.00
2023-06-03T19:14:13.285Z,101782.00
2023-06-03T19:16:41.589Z,101792.00
2023-06-03T19:19:09.157Z,101784.00
2023-06-03T19:21:36.494Z,101784.00
2023-06-03T19:24:20.572Z,101790.00
2023-06-03T19:26:47.698Z,101786.00
2023-06-03T19:29:14.480Z,101793.00
2023-06-03T19:31:41.544Z,101795.00
2023-06-03T19:34:09.456Z,101791.00
2023-06-03T19:36:36.100Z,101794.00
2023-06-03T19:39:04.895Z,101800.00
2023-06-03T19:41:31.720Z,101796.00
2023-06-03T19:43:59.285Z,101798.00
2023-06-03T19:46:27.745Z,101798.00
2023-06-03T19:48:54.645Z,101799.00
2023-06-03T19:51:29.719Z,101810.00
2023-06-03T19:53:57.319Z,101808.00
2023-06-03T19:56:24.616Z,101804.00
2023-06-03T19:58:51.469Z,101803.00
2023-06-03T20:01:18.054Z,101799.00
2023-06-03T20:03:44.954Z,101808.00
2023-06-03T20:06:11.740Z,101801.00
2023-06-03T20:08:38.318Z,101804.00
2023-06-03T20:11:07.006Z,101809.00
2023-06-03T20:13:35.783Z,101819.00
2023-06-03T20:16:04.925Z,101808.00
2023-06-03T20:18:32.588Z,101807.00
2023-06-03T20:20:59.262Z,101808.00
2023-06-03T20:23:25.981Z,101817.00
2023-06-03T20:25:52.582Z,101811.00
2023-06-03T20:28:19.258Z,101819.00
2023-06-03T20:30:45.840Z,101813.00
2023-06-03T20:33:13.678Z,101814.00
2023-06-03T20:35:40.233Z,101817.00
2023-06-03T20:38:06.830Z,101811.00
2023-06-03T20:40:33.488Z,101817.00
2023-06-03T20:43:01.442Z,101821.00
2023-06-03T20:45:28.076Z,101815.00
2023-06-03T20:47:56.666Z,101815.00
2023-06-03T20:50:24.045Z,101818.00
2023-06-03T20:52:51.023Z,101820.00
2023-06-03T20:55:17.697Z,101824.00
2023-06-03T20:57:44.441Z,101823.00
2023-06-03T21:00:11.775Z,101824.00
2023-06-03T21:02:38.655Z,101828.00
2023-06-03T21:05:06.955Z,101826.00
2023-06-03T21:07:33.492Z,101826.00
2023-06-03T21:10:00.001Z,101823.00
2023-06-03T21:12:26.801Z,101823.00
2023-06-03T21:14:53.454Z,101832.00
2023-06-03T21:17:21.283Z,101825.00
2023-06-03T21:19:49.879Z,101821.00
2023-06-03T21:22:18.764Z,101829.00
2023-06-03T21:24:46.592Z,101833.00
2023-06-03T21:27:15.904Z,101831.00
2023-06-03T21:29:42.430Z,101837.00
2023-06-03T21:32:09.430Z,101825.00
2023-06-03T21:34:38.641Z,101837.00
2023-06-03T21:37:05.723Z,101830.00
2023-06-03T21:39:32.478Z,101831.00
2023-06-03T21:41:59.343Z,101829.00
2023-06-03T21:44:26.327Z,101837.00
2023-06-03T21:46:53.456Z,101832.00
2023-06-03T21:49:19.962Z,101836.00
2023-06-03T21:51:46.465Z,101836.00
2023-06-03T21:54:13.143Z,101832.00
2023-06-03T21:56:39.691Z,101841.00
2023-06-03T21:59:09.271Z,101842.00
2023-06-03T22:01:39.097Z,101834.00
2023-06-03T22:04:06.165Z,101837.00
2023-06-03T22:06:32.996Z,101837.00
2023-06-03T22:09:17.362Z,101834.00
2023-06-03T22:11:44.074Z,101838.00
2023-06-03T22:14:10.586Z,101836.00
2023-06-03T22:16:37.555Z,101834.00
2023-06-03T22:19:05.007Z,101834.00
2023-06-03T22:21:31.741Z,101829.00
2023-06-03T22:23:58.745Z,101839.00
2023-06-03T22:26:25.779Z,101839.00
2023-06-03T22:28:52.526Z,101849.00
2023-06-03T22:31:19.209Z,101845.00
2023-06-03T22:33:45.919Z,101844.00
2023-06-03T22:36:12.472Z,101847.00
2023-06-03T22:38:39.464Z,101841.00
2023-06-03T22:41:08.728Z,101848.00
2023-06-03T22:43:35.911Z,101848.00
2023-06-03T22:46:03.563Z,101839.00
2023-06-03T22:48:30.552Z,101832.00
2023-06-03T22:50:59.334Z,101838.00
2023-06-03T22:53:26.549Z,101833.00
2023-06-03T22:55:53.402Z,101838.00
2023-06-03T22:58:20.477Z,101837.00
2023-06-03T23:00:47.206Z,101827.00
2023-06-03T23:03:14.049Z,101828.00
2023-06-03T23:05:40.916Z,101834.00
2023-06-03T23:08:10.846Z,101834.00
2023-06-03T23:10:40.447Z,101841.00
2023-06-03T23:13:07.023Z,101824.00
2023-06-03T23:15:33.933Z,101831.00
2023-06-03T23:18:00.821Z,101836.00
2023-06-03T23:20:29.297Z,101839.00
2023-06-03T23:22:56.110Z,101830.00
2023-06-03T23:25:22.804Z,101831.00
2023-06-03T23:27:49.580Z,101830.00
2023-06-03T23:30:16.485Z,101827.00
2023-06-03T23:32:44.410Z,101826.00
2023-06-03T23:35:11.530Z,101840.00
2023-06-03T23:37:41.432Z,101831.00
2023-06-03T23:40:11.278Z,101840.00
2023-06-03T23:42:38.722Z,101838.00
2023-06-03T23:45:05.839Z,101835.00
2023-06-03T23:47:32.678Z,101832.00
2023-06-03T23:50:02.152Z,101834.00
2023-06-03T23:52:29.380Z,101834.00
2023-06-03T23:54:57.915Z,101833.00
2023-06-03T23:57:28.928Z,101837.00
2023-06-03T23:59:57.990Z,101835.00
